Time;durP1;ratioP1;P1;durP2;ratioP2;P2;SDS_P1;SDS_P2;PMS_P1;PMS_P2;Temp;Humidity;BMP_temperature;BMP_pressure;BME280_temperature;BME280_humidity;BME280_pressure;Samples;Min_cycle;Max_cycle;Signal;HPM_P1;HPM_P2
2021/11/16 00:01:35;;;;;;;25.60;17.42;;;9.10;99.90;;;;;;5040496;28;20393;-82
2021/11/16 00:04:00;;;;;;;29.70;18.10;;;9.20;99.90;;;;;;5039513;28;20116;-85
2021/11/16 00:06:26;;;;;;;26.92;18.42;;;9.50;99.90;;;;;;5036984;28;20109;-82
2021/11/16 00:08:51;;;;;;;28.98;19.42;;;9.20;99.90;;;;;;5039388;28;20393;-81
2021/11/16 00:11:17;;;;;;;26.98;18.23;;;9.10;99.90;;;;;;5039550;28;20112;-81
2021/11/16 00:13:44;;;;;;;31.23;19.02;;;9.10;99.90;;;;;;5040031;28;20504;-81
2021/11/16 00:16:10;;;;;;;28.95;18.27;;;9.10;99.90;;;;;;5045912;28;20142;-81
2021/11/16 00:18:36;;;;;;;32.83;19.92;;;9.50;99.90;;;;;;5051012;28;20199;-81
2021/11/16 00:21:04;;;;;;;29.15;18.90;;;9.10;99.90;;;;;;5075230;28;20028;-81
2021/11/16 00:23:35;;;;;;;27.92;18.42;;;9.30;99.90;;;;;;5066979;28;20481;-81
2021/11/16 00:26:08;;;;;;;32.42;19.05;;;9.00;99.90;;;;;;5067506;28;20099;-81
2021/11/16 00:28:34;;;;;;;30.75;19.33;;;9.10;99.90;;;;;;5067326;28;20025;-81
2021/11/16 00:31:00;;;;;;;30.23;17.92;;;9.10;99.90;;;;;;5068371;28;20435;-82
2021/11/16 00:33:31;;;;;;;29.05;18.13;;;9.10;99.90;;;;;;5068787;28;20037;-81
2021/11/16 00:35:56;;;;;;;31.50;18.73;;;9.50;99.90;;;;;;5074648;28;20024;-81
2021/11/16 00:38:25;;;;;;;29.58;18.00;;;9.00;99.90;;;;;;5068346;28;20162;-81
2021/11/16 00:40:51;;;;;;;29.48;18.65;;;9.30;99.90;;;;;;5068166;28;20096;-81
2021/11/16 00:43:16;;;;;;;29.70;18.95;;;9.30;99.90;;;;;;5068038;28;20487;-81
2021/11/16 00:45:45;;;;;;;27.90;18.48;;;9.10;99.90;;;;;;5067861;28;20028;-81
2021/11/16 00:48:11;;;;;;;29.05;18.52;;;9.60;99.90;;;;;;5072345;28;20075;-81
2021/11/16 00:50:40;;;;;;;26.08;17.13;;;9.40;99.90;;;;;;5071112;28;20048;-81
2021/11/16 00:53:06;;;;;;;28.77;18.80;;;9.70;99.90;;;;;;5067834;28;20120;-81
2021/11/16 00:55:32;;;;;;;32.33;18.88;;;9.20;99.90;;;;;;5068315;28;20039;-81
2021/11/16 00:57:58;;;;;;;31.77;18.50;;;9.20;99.90;;;;;;5068062;28;20525;-81
2021/11/16 01:00:24;;;;;;;28.25;18.27;;;9.40;99.90;;;;;;5068978;28;20032;-81
2021/11/16 01:02:50;;;;;;;28.35;18.23;;;9.50;99.90;;;;;;5073157;28;20091;-81
2021/11/16 01:05:15;;;;;;;31.83;19.75;;;9.20;99.90;;;;;;5066246;28;20030;-81
2021/11/16 01:07:43;;;;;;;30.98;18.65;;;9.40;99.90;;;;;;5066147;28;20036;-81
2021/11/16 01:10:11;;;;;;;29.70;17.77;;;9.10;99.90;;;;;;5065889;28;20251;-81
2021/11/16 01:12:38;;;;;;;31.20;17.88;;;9.00;99.90;;;;;;5067571;28;20541;-81
2021/11/16 01:15:05;;;;;;;28.92;18.05;;;9.40;99.90;;;;;;5073223;28;20081;-81
2021/11/16 01:17:31;;;;;;;31.25;19.10;;;8.80;99.90;;;;;;5066596;28;20130;-81
2021/11/16 01:19:57;;;;;;;30.27;18.60;;;8.90;99.90;;;;;;5067419;28;20024;-81
2021/11/16 01:22:23;;;;;;;29.52;19.17;;;9.20;99.90;;;;;;5067509;28;20033;-81
2021/11/16 01:24:48;;;;;;;33.17;18.27;;;9.10;99.90;;;;;;5068258;28;20021;-81
2021/11/16 01:27:18;;;;;;;29.08;18.55;;;9.30;99.90;;;;;;5070077;28;20029;-81
2021/11/16 01:29:49;;;;;;;29.88;19.55;;;9.00;99.90;;;;;;5069895;28;20029;-81
2021/11/16 01:32:34;;;;;;;30.52;18.45;;;9.40;99.90;;;;;;5067382;28;20021;-81
2021/11/16 01:35:00;;;;;;;30.35;18.00;;;8.90;99.90;;;;;;5067106;28;20104;-81
2021/11/16 01:37:26;;;;;;;28.23;18.73;;;9.20;99.90;;;;;;5067570;28;20182;-81
2021/11/16 01:39:52;;;;;;;33.40;18.83;;;8.90;99.90;;;;;;5067627;28;20032;-81
2021/11/16 01:42:20;;;;;;;32.70;18.92;;;8.90;99.90;;;;;;5069297;28;20046;-81
2021/11/16 01:44:46;;;;;;;28.90;18.52;;;9.00;99.90;;;;;;5070200;28;20012;-81
2021/11/16 01:47:13;;;;;;;28.88;18.08;;;9.20;99.90;;;;;;5065886;28;20062;-81
2021/11/16 01:49:39;;;;;;;33.20;19.38;;;8.90;99.90;;;;;;5067382;28;20108;-81
2021/11/16 01:52:05;;;;;;;31.92;18.70;;;8.90;99.90;;;;;;5067031;28;20048;-81
2021/11/16 01:54:31;;;;;;;31.35;17.95;;;8.90;99.90;;;;;;5067509;28;20030;-81
2021/11/16 01:56:57;;;;;;;30.58;17.33;;;9.00;99.90;;;;;;5072628;28;20037;-81
2021/11/16 01:59:23;;;;;;;29.80;17.10;;;9.00;99.90;;;;;;5067150;28;20400;-81
2021/11/16 02:01:50;;;;;;;28.15;18.17;;;9.00;99.90;;;;;;5066719;28;20021;-81
2021/11/16 02:04:16;;;;;;;29.15;17.20;;;9.50;99.90;;;;;;5066614;28;20492;-81
2021/11/16 02:06:43;;;;;;;26.10;16.73;;;9.00;99.90;;;;;;5066604;28;20028;-81
2021/11/16 02:09:11;;;;;;;30.17;18.45;;;9.00;99.90;;;;;;5071239;28;20055;-81
2021/11/16 02:11:38;;;;;;;29.13;18.67;;;9.00;99.90;;;;;;5051363;28;20508;-81
2021/11/16 02:14:06;;;;;;;30.52;17.92;;;9.00;99.90;;;;;;5066322;28;20045;-81
2021/11/16 02:16:33;;;;;;;34.03;19.55;;;9.00;99.90;;;;;;5066846;28;20025;-81
2021/11/16 02:18:59;;;;;;;31.23;18.85;;;9.40;99.90;;;;;;5066277;28;20029;-81
2021/11/16 02:21:25;;;;;;;29.27;18.38;;;9.00;99.90;;;;;;5066730;28;20037;-81
2021/11/16 02:23:51;;;;;;;27.88;18.17;;;9.10;99.90;;;;;;5071125;28;20020;-81
2021/11/16 02:26:17;;;;;;;32.55;18.73;;;9.00;99.90;;;;;;5064361;28;20080;-81
2021/11/16 02:28:45;;;;;;;29.08;18.80;;;9.10;99.90;;;;;;5066501;28;20544;-81
2021/11/16 02:31:12;;;;;;;28.33;19.05;;;9.00;99.90;;;;;;5066262;28;20016;-81
2021/11/16 02:33:38;;;;;;;28.63;17.25;;;9.00;99.90;;;;;;5066586;28;20032;-81
2021/11/16 02:36:04;;;;;;;33.72;19.98;;;9.00;99.90;;;;;;5071532;28;20055;-81
2021/11/16 02:38:30;;;;;;;28.30;18.20;;;9.60;99.90;;;;;;5065499;28;20071;-81
2021/11/16 02:40:55;;;;;;;30.10;18.33;;;9.00;99.90;;;;;;5065625;28;20166;-81
2021/11/16 02:43:22;;;;;;;28.27;17.42;;;9.10;99.90;;;;;;5066257;28;20035;-81
2021/11/16 02:45:48;;;;;;;30.33;17.85;;;8.90;99.90;;;;;;5066179;28;20108;-81
2021/11/16 02:48:14;;;;;;;28.85;17.95;;;8.90;99.90;;;;;;5069084;28;20032;-81
2021/11/16 02:50:42;;;;;;;32.28;17.33;;;9.30;99.90;;;;;;5069063;28;20021;-81
2021/11/16 02:53:08;;;;;;;26.55;17.73;;;8.90;99.90;;;;;;5065782;28;20044;-81
2021/11/16 02:55:34;;;;;;;27.30;18.23;;;8.90;99.90;;;;;;5065164;28;20494;-81
2021/11/16 02:57:59;;;;;;;25.70;17.48;;;8.90;99.90;;;;;;5065980;28;20462;-81
2021/11/16 03:00:25;;;;;;;29.02;16.92;;;9.20;99.90;;;;;;5066313;28;20478;-81
2021/11/16 03:02:51;;;;;;;27.75;18.67;;;9.00;99.90;;;;;;5069752;28;20111;-82
2021/11/16 03:05:17;;;;;;;28.10;17.30;;;9.10;99.90;;;;;;5064358;28;20029;-81
2021/11/16 03:07:55;;;;;;;27.02;17.30;;;9.10;99.90;;;;;;5065300;28;20037;-81
2021/11/16 03:10:26;;;;;;;27.00;16.95;;;9.00;99.90;;;;;;5065142;28;20032;-81
2021/11/16 03:12:52;;;;;;;29.38;17.65;;;9.00;99.90;;;;;;5065837;28;20049;-81
2021/11/16 03:15:19;;;;;;;28.58;16.48;;;9.00;99.90;;;;;;5067302;28;20025;-81
2021/11/16 03:17:46;;;;;;;29.55;17.80;;;8.90;99.90;;;;;;5069869;28;20060;-81
2021/11/16 03:20:15;;;;;;;27.75;17.23;;;8.90;99.90;;;;;;5065400;28;20485;-81
2021/11/16 03:22:48;;;;;;;29.63;17.75;;;9.00;99.90;;;;;;5065117;28;20090;-81
2021/11/16 03:25:14;;;;;;;29.45;17.60;;;9.00;99.90;;;;;;5065487;28;20036;-81
2021/11/16 03:27:42;;;;;;;25.67;17.83;;;9.00;99.90;;;;;;5065816;28;20438;-81
2021/11/16 03:30:09;;;;;;;29.67;17.38;;;9.30;99.90;;;;;;5070056;28;20558;-81
2021/11/16 03:32:35;;;;;;;28.73;17.67;;;9.00;99.90;;;;;;5066452;28;20027;-81
2021/11/16 03:35:03;;;;;;;24.83;16.55;;;9.00;99.90;;;;;;5065282;28;20464;-82
2021/11/16 03:37:39;;;;;;;27.52;17.83;;;8.90;99.90;;;;;;5065200;28;20037;-81
2021/11/16 03:40:07;;;;;;;29.58;17.90;;;8.90;99.90;;;;;;5063856;28;20052;-81
2021/11/16 03:42:38;;;;;;;27.17;18.25;;;9.00;99.90;;;;;;5063606;28;20370;-81
2021/11/16 03:45:04;;;;;;;26.88;17.63;;;9.00;99.90;;;;;;5070850;28;20029;-81
2021/11/16 03:47:30;;;;;;;29.52;17.73;;;9.00;99.90;;;;;;5063704;28;20473;-81
2021/11/16 03:49:56;;;;;;;32.47;18.27;;;9.30;99.90;;;;;;5064620;28;20035;-81
2021/11/16 03:52:24;;;;;;;30.75;18.33;;;8.80;99.90;;;;;;5065410;28;20037;-81
2021/11/16 03:54:50;;;;;;;31.42;19.17;;;9.00;99.90;;;;;;5064515;28;20017;-81
2021/11/16 03:57:16;;;;;;;31.83;19.33;;;9.10;99.90;;;;;;5067874;28;20442;-81
2021/11/16 03:59:41;;;;;;;27.65;17.83;;;8.80;99.90;;;;;;5068844;28;20020;-81
2021/11/16 04:02:07;;;;;;;26.42;17.08;;;8.80;99.90;;;;;;5065356;28;20040;-81
2021/11/16 04:04:33;;;;;;;28.92;17.65;;;8.80;99.90;;;;;;5064881;28;20024;-81
2021/11/16 04:06:59;;;;;;;27.95;17.00;;;8.90;99.90;;;;;;5064578;28;20040;-80
2021/11/16 04:09:25;;;;;;;29.05;18.27;;;9.40;99.90;;;;;;5066176;28;20025;-81
2021/11/16 04:11:50;;;;;;;30.40;19.13;;;9.30;99.90;;;;;;5070297;28;20571;-81
2021/11/16 04:14:16;;;;;;;29.38;18.05;;;9.00;99.90;;;;;;5044899;28;20085;-81
2021/11/16 04:16:42;;;;;;;29.80;17.95;;;8.90;99.90;;;;;;5064881;28;20111;-80
2021/11/16 04:19:08;;;;;;;27.27;18.05;;;8.90;99.90;;;;;;5063099;28;20032;-81
2021/11/16 04:21:33;;;;;;;28.00;17.90;;;8.90;99.90;;;;;;5063444;28;20021;-81
2021/11/16 04:23:59;;;;;;;27.77;17.30;;;9.00;99.90;;;;;;5071043;28;20037;-80
2021/11/16 04:26:25;;;;;;;27.98;17.75;;;9.10;99.90;;;;;;5064773;28;20033;-80
2021/11/16 04:28:51;;;;;;;27.45;17.70;;;9.10;99.90;;;;;;5048006;28;20511;-81
2021/11/16 04:31:17;;;;;;;28.92;18.10;;;9.10;99.90;;;;;;5064839;28;20028;-81
2021/11/16 04:33:43;;;;;;;28.58;17.75;;;9.10;99.90;;;;;;5064888;28;20021;-81
2021/11/16 04:36:12;;;;;;;31.95;17.58;;;9.10;99.90;;;;;;5069229;28;20469;-81
2021/11/16 04:38:38;;;;;;;30.13;18.55;;;9.00;99.90;;;;;;5067756;28;20042;-81
2021/11/16 04:41:04;;;;;;;26.75;17.40;;;8.90;99.90;;;;;;5064560;28;20376;-81
2021/11/16 04:43:31;;;;;;;26.73;17.33;;;8.90;99.90;;;;;;5065245;28;20471;-81
2021/11/16 04:46:04;;;;;;;27.63;17.92;;;8.90;99.90;;;;;;5068130;28;20029;-81
2021/11/16 05:04:51;;;;;;;27.38;17.27;;;8.80;99.90;;;;;;5067584;28;20055;-81
2021/11/16 05:07:20;;;;;;;30.65;18.55;;;8.60;99.90;;;;;;5068709;28;20060;-80
2021/11/16 05:09:47;;;;;;;26.73;18.35;;;9.10;99.90;;;;;;5067804;28;20071;-81
2021/11/16 05:12:13;;;;;;;27.88;18.42;;;8.80;99.90;;;;;;5070863;28;20040;-81
2021/11/16 05:14:38;;;;;;;29.95;18.38;;;8.60;99.90;;;;;;5071271;28;20175;-81
2021/11/16 05:17:04;;;;;;;28.67;17.55;;;8.60;99.90;;;;;;5068099;28;20028;-81
2021/11/16 05:19:30;;;;;;;30.80;18.00;;;8.60;99.90;;;;;;5067681;28;20032;-81
2021/11/16 05:21:56;;;;;;;30.45;18.85;;;8.70;99.90;;;;;;5067811;28;20028;-81
2021/11/16 05:24:23;;;;;;;27.33;17.58;;;8.70;99.90;;;;;;5069034;28;20037;-81
2021/11/16 05:26:49;;;;;;;30.40;18.02;;;8.70;99.90;;;;;;5073076;28;20099;-81
2021/11/16 05:29:15;;;;;;;28.02;17.83;;;9.20;99.90;;;;;;5067344;28;20111;-81
2021/11/16 05:31:40;;;;;;;28.10;16.88;;;9.40;99.90;;;;;;5067515;28;20025;-81
2021/11/16 05:34:06;;;;;;;25.48;17.00;;;8.90;99.90;;;;;;5067811;28;20477;-81
2021/11/16 05:36:32;;;;;;;27.83;16.88;;;8.90;99.90;;;;;;5066557;28;20032;-81
2021/11/16 05:38:57;;;;;;;27.63;18.00;;;8.80;99.90;;;;;;5073665;28;20466;-81
2021/11/16 05:41:23;;;;;;;27.15;17.67;;;9.10;99.90;;;;;;5066019;28;20020;-81
2021/11/16 05:43:49;;;;;;;29.40;17.52;;;9.20;99.90;;;;;;5067215;28;20020;-81
2021/11/16 05:46:20;;;;;;;29.90;17.50;;;8.80;99.90;;;;;;5067254;28;20407;-81
2021/11/16 05:48:46;;;;;;;30.98;17.95;;;8.90;99.90;;;;;;5067110;28;20025;-81
2021/11/16 05:51:12;;;;;;;30.38;19.85;;;8.80;99.90;;;;;;5070348;28;20025;-81
2021/11/16 05:53:43;;;;;;;28.60;18.20;;;8.70;99.90;;;;;;5070468;28;20024;-81
2021/11/16 05:56:08;;;;;;;30.80;19.38;;;9.00;99.90;;;;;;5066387;28;20044;-81
2021/11/16 05:58:34;;;;;;;29.13;18.48;;;9.10;99.90;;;;;;5066357;28;20059;-81
2021/11/16 06:01:00;;;;;;;25.92;18.02;;;8.60;99.90;;;;;;5067514;28;20048;-81
2021/11/16 06:03:25;;;;;;;26.73;17.45;;;9.20;99.90;;;;;;5067557;28;20025;-81
2021/11/16 06:05:51;;;;;;;27.90;17.98;;;8.70;99.90;;;;;;5072703;28;20115;-81
2021/11/16 06:08:29;;;;;;;29.83;18.85;;;8.90;99.90;;;;;;5066222;28;20085;-81
2021/11/16 06:10:56;;;;;;;30.33;17.90;;;8.70;99.90;;;;;;5067093;28;20070;-81
2021/11/16 06:13:22;;;;;;;32.17;19.13;;;8.70;99.90;;;;;;5066356;28;20044;-81
2021/11/16 06:15:49;;;;;;;29.80;18.25;;;8.70;99.90;;;;;;5065374;28;20029;-81
2021/11/16 06:18:15;;;;;;;27.92;17.10;;;8.90;99.90;;;;;;5069663;28;20101;-81
2021/11/16 06:20:43;;;;;;;35.30;17.98;;;8.80;99.90;;;;;;5068010;28;20491;-81
2021/11/16 06:23:11;;;;;;;26.50;16.90;;;8.80;99.90;;;;;;5066385;28;20158;-81
2021/11/16 06:25:38;;;;;;;27.25;17.60;;;8.70;99.90;;;;;;5066468;28;20024;-81
2021/11/16 06:28:04;;;;;;;28.38;16.60;;;8.60;99.90;;;;;;5066598;28;20123;-81
2021/11/16 06:30:30;;;;;;;27.50;17.13;;;8.60;99.90;;;;;;5066459;28;20577;-81
2021/11/16 06:32:56;;;;;;;26.50;16.88;;;8.60;99.90;;;;;;5071868;28;20059;-81
2021/11/16 06:35:22;;;;;;;29.75;17.92;;;8.60;99.90;;;;;;5066191;28;20103;-81
2021/11/16 06:37:49;;;;;;;28.35;17.63;;;8.50;99.90;;;;;;5066656;28;20071;-81
2021/11/16 06:40:17;;;;;;;29.08;18.02;;;8.50;99.90;;;;;;5065766;28;20044;-81
2021/11/16 06:42:43;;;;;;;33.55;19.90;;;8.60;99.90;;;;;;5065988;28;20032;-81
2021/11/16 06:45:09;;;;;;;29.95;20.08;;;8.60;99.90;;;;;;5069930;28;20225;-80
2021/11/16 06:47:35;;;;;;;36.47;21.13;;;8.60;99.90;;;;;;5049373;28;20032;-81
2021/11/16 06:50:00;;;;;;;35.10;23.02;;;8.60;99.90;;;;;;5065825;28;20070;-82
2021/11/16 06:52:30;;;;;;;34.10;22.10;;;8.60;99.90;;;;;;5065975;28;20048;-83
2021/11/16 06:54:55;;;;;;;32.67;20.27;;;8.70;99.90;;;;;;5064331;28;20099;-84
2021/11/16 06:57:26;;;;;;;33.47;21.63;;;8.70;99.90;;;;;;5067117;28;20132;-84
2021/11/16 06:59:51;;;;;;;33.60;20.25;;;8.70;99.90;;;;;;5070683;28;20029;-83
2021/11/16 07:02:25;;;;;;;30.23;19.33;;;8.70;99.90;;;;;;5065639;28;20073;-83
2021/11/16 07:04:51;;;;;;;31.67;21.40;;;8.70;99.90;;;;;;5065483;28;20039;-81
2021/11/16 07:07:16;;;;;;;30.40;19.45;;;8.70;99.90;;;;;;5064994;28;20121;-82
2021/11/16 07:09:43;;;;;;;31.38;19.35;;;8.70;99.90;;;;;;5065330;28;20393;-81
2021/11/16 07:12:18;;;;;;;29.33;19.48;;;8.90;99.90;;;;;;5069440;28;20052;-81
2021/11/16 07:14:44;;;;;;;28.30;18.70;;;8.80;99.90;;;;;;5067872;28;20028;-82
2021/11/16 07:17:13;;;;;;;30.98;20.17;;;8.60;99.90;;;;;;5065276;28;20177;-82
2021/11/16 07:19:53;;;;;;;31.48;18.85;;;8.70;99.90;;;;;;5064741;28;20095;-82
2021/11/16 07:22:20;;;;;;;30.05;19.02;;;8.90;99.90;;;;;;5065781;28;20091;-82
2021/11/16 07:24:49;;;;;;;31.17;19.67;;;8.60;99.90;;;;;;5065320;28;20150;-82
2021/11/16 07:27:17;;;;;;;32.15;19.88;;;9.00;99.90;;;;;;5068131;28;20178;-82
2021/11/16 07:29:48;;;;;;;31.45;18.73;;;8.70;99.90;;;;;;5052337;28;20033;-83
2021/11/16 07:32:18;;;;;;;31.88;19.52;;;8.70;99.90;;;;;;5063276;28;20505;-81
2021/11/16 07:34:45;;;;;;;31.23;19.02;;;8.70;99.90;;;;;;5063754;28;20036;-82
2021/11/16 07:37:26;;;;;;;32.45;19.50;;;9.10;99.90;;;;;;5063747;28;20060;-81
2021/11/16 07:39:56;;;;;;;31.13;20.25;;;9.20;99.90;;;;;;5065051;28;20025;-82
2021/11/16 07:42:25;;;;;;;30.83;18.73;;;8.70;99.90;;;;;;5066502;28;20041;-81
2021/11/16 07:45:06;;;;;;;32.03;20.10;;;8.70;99.90;;;;;;5070351;28;20587;-82
2021/11/16 07:47:39;;;;;;;32.78;19.70;;;8.80;99.90;;;;;;5065202;28;20495;-82
2021/11/16 07:50:07;;;;;;;31.17;18.83;;;8.70;99.90;;;;;;5065060;28;20021;-82
2021/11/16 07:52:33;;;;;;;28.45;17.42;;;8.80;99.90;;;;;;5064887;28;20065;-81
2021/11/16 07:54:59;;;;;;;28.33;18.13;;;8.80;99.90;;;;;;5065038;28;20024;-81
2021/11/16 07:57:25;;;;;;;30.88;19.42;;;8.80;99.90;;;;;;5065814;28;20130;-82
2021/11/16 07:59:55;;;;;;;30.02;18.17;;;8.80;99.90;;;;;;5070190;28;20174;-82
2021/11/16 08:02:34;;;;;;;27.67;17.55;;;8.80;99.90;;;;;;5064720;28;20029;-83
2021/11/16 08:11:06;;;;;;;29.08;17.95;;;8.70;99.90;;;;;;5064605;28;20032;-83
2021/11/16 08:13:34;;;;;;;30.42;17.88;;;9.00;99.90;;;;;;5062886;28;20052;-85
2021/11/16 08:16:09;;;;;;;29.13;18.67;;;8.70;99.90;;;;;;5063288;28;20025;-84
2021/11/16 08:18:55;;;;;;;28.73;19.48;;;8.80;99.90;;;;;;5032439;28;20436;-84
2021/11/16 08:21:21;;;;;;;26.50;18.40;;;8.90;99.90;;;;;;5070198;28;20081;-85
2021/11/16 08:23:57;;;;;;;28.50;18.63;;;9.00;99.90;;;;;;5073698;28;20466;-85
2021/11/16 08:26:26;;;;;;;25.92;17.15;;;9.00;99.90;;;;;;5068850;28;20077;-84
2021/11/16 08:28:52;;;;;;;27.13;17.40;;;9.10;99.90;;;;;;5067756;28;20024;-85
2021/11/16 08:31:19;;;;;;;28.02;18.23;;;9.60;99.90;;;;;;5068324;28;20051;-85
2021/11/16 08:33:45;;;;;;;27.08;17.75;;;9.30;99.90;;;;;;5068742;28;20547;-84
2021/11/16 08:36:11;;;;;;;27.08;18.13;;;9.30;99.90;;;;;;5072850;28;20063;-83
2021/11/16 08:38:39;;;;;;;27.65;17.63;;;9.30;99.90;;;;;;5070847;28;20044;-84
2021/11/16 08:41:05;;;;;;;28.65;18.13;;;9.80;99.90;;;;;;5068472;28;20032;-85
2021/11/16 08:43:38;;;;;;;31.58;18.48;;;9.10;99.90;;;;;;5067998;28;20032;-85
2021/11/16 08:46:10;;;;;;;26.30;18.20;;;9.30;99.90;;;;;;5050462;28;20401;-85
2021/11/16 08:48:41;;;;;;;28.98;18.45;;;9.30;99.90;;;;;;5037946;28;20191;-84
2021/11/16 08:51:08;;;;;;;30.42;19.10;;;9.30;99.90;;;;;;5073632;28;20024;-85
2021/11/16 08:53:41;;;;;;;28.25;18.35;;;9.30;99.90;;;;;;5069904;28;20468;-85
2021/11/16 08:56:21;;;;;;;26.90;17.33;;;9.60;99.90;;;;;;5066334;28;20109;-83
2021/11/16 08:58:47;;;;;;;26.63;17.55;;;9.80;99.90;;;;;;5067689;28;20032;-84
2021/11/16 09:01:14;;;;;;;33.58;21.10;;;9.40;99.90;;;;;;5068388;28;20456;-84
2021/11/16 09:03:45;;;;;;;30.55;21.08;;;9.50;99.90;;;;;;5068022;28;20024;-86
2021/11/16 09:06:22;;;;;;;33.83;19.60;;;9.40;99.90;;;;;;5071995;28;20025;-82
2021/11/16 09:09:20;;;;;;;41.08;23.88;;;9.40;99.90;;;;;;5071059;28;20016;-81
2021/11/16 09:12:02;;;;;;;38.70;22.05;;;9.50;99.90;;;;;;5008014;28;20041;-81
2021/11/16 09:14:28;;;;;;;25.33;17.05;;;9.50;99.90;;;;;;5005772;28;20042;-82
2021/11/16 09:16:55;;;;;;;27.65;18.13;;;9.50;99.90;;;;;;5005814;28;20022;-82
2021/11/16 09:19:32;;;;;;;36.90;21.63;;;9.50;99.90;;;;;;5005675;28;20053;-82
2021/11/16 09:22:00;;;;;;;27.08;16.55;;;9.60;99.90;;;;;;5005805;28;20525;-81
2021/11/16 09:24:37;;;;;;;28.77;16.58;;;9.40;99.90;;;;;;5006870;28;20154;-81
2021/11/16 09:29:36;;;;;;;76.88;37.80;;;9.40;99.90;;;;;;5006885;28;20380;-83
2021/11/16 09:32:06;;;;;;;36.65;20.08;;;10.00;99.90;;;;;;5004290;28;20026;-81
2021/11/16 09:34:54;;;;;;;30.85;19.95;;;9.60;99.90;;;;;;5003960;28;20403;-82
2021/11/16 09:37:23;;;;;;;34.63;22.45;;;9.90;99.90;;;;;;5005077;28;20038;-82
2021/11/16 09:39:51;;;;;;;27.65;17.60;;;9.70;99.90;;;;;;5005610;28;20089;-81
2021/11/16 09:42:23;;;;;;;25.33;17.05;;;10.10;99.90;;;;;;5008125;28;20089;-81
2021/11/16 09:44:53;;;;;;;23.88;15.38;;;9.90;99.90;;;;;;5009209;28;20120;-81
2021/11/16 09:47:34;;;;;;;26.17;15.75;;;9.70;99.90;;;;;;5035600;28;20396;-81
2021/11/16 09:50:21;;;;;;;25.98;16.90;;;9.70;99.90;;;;;;5067087;28;20029;-80
2021/11/16 09:52:50;;;;;;;23.17;16.35;;;9.70;99.90;;;;;;5067186;28;20036;-81
2021/11/16 09:55:21;;;;;;;23.35;15.38;;;9.80;99.90;;;;;;5066450;28;20073;-82
2021/11/16 09:57:54;;;;;;;25.40;15.88;;;9.90;99.90;;;;;;5067177;28;20390;-82
2021/11/16 10:00:24;;;;;;;31.38;19.17;;;9.90;99.90;;;;;;5068508;28;20017;-82
2021/11/16 10:02:59;;;;;;;46.25;35.25;;;10.00;99.90;;;;;;5072483;28;20036;-81
2021/11/16 10:05:27;;;;;;;22.00;16.05;;;10.10;99.90;;;;;;5066631;28;20025;-81
2021/11/16 10:07:57;;;;;;;25.05;15.52;;;10.10;99.90;;;;;;5066628;28;20025;-81
2021/11/16 10:10:24;;;;;;;22.50;13.90;;;10.00;99.90;;;;;;5049874;28;20032;-81
2021/11/16 10:12:55;;;;;;;23.13;16.63;;;9.80;99.90;;;;;;5065867;28;20514;-82
2021/11/16 10:15:23;;;;;;;20.33;14.38;;;9.70;99.90;;;;;;5068522;28;20032;-81
2021/11/16 10:17:51;;;;;;;19.33;14.60;;;10.20;99.90;;;;;;5071100;28;20036;-81
2021/11/16 10:20:20;;;;;;;23.50;14.80;;;10.40;99.90;;;;;;5066238;28;20047;-81
2021/11/16 10:22:52;;;;;;;27.25;15.80;;;10.00;99.90;;;;;;5066394;28;20028;-82
2021/11/16 10:25:21;;;;;;;89.88;40.17;;;10.20;99.90;;;;;;5066651;28;20028;-81
2021/11/16 10:27:49;;;;;;;78.30;37.13;;;10.00;99.90;;;;;;5066182;28;20035;-81
2021/11/16 10:30:17;;;;;;;30.27;17.88;;;10.00;99.90;;;;;;5069793;28;20033;-81
2021/11/16 10:33:04;;;;;;;21.55;14.55;;;10.10;99.90;;;;;;5068061;28;20127;-82
2021/11/16 10:35:30;;;;;;;50.78;24.48;;;10.10;99.90;;;;;;5065832;28;20047;-81
2021/11/16 10:37:58;;;;;;;30.20;16.92;;;10.20;99.90;;;;;;5065766;28;20040;-82
2021/11/16 10:40:27;;;;;;;19.48;13.77;;;10.50;99.90;;;;;;5065932;28;20024;-82
2021/11/16 10:43:00;;;;;;;23.55;14.27;;;10.00;99.90;;;;;;5066389;28;20119;-82
2021/11/16 10:45:28;;;;;;;24.27;14.85;;;9.90;99.90;;;;;;5067066;28;20044;-88
2021/11/16 10:48:02;;;;;;;21.83;14.90;;;10.00;99.90;;;;;;5071638;28;20021;-88
2021/11/16 10:50:30;;;;;;;30.60;18.10;;;10.30;99.90;;;;;;5063497;28;20046;-88
2021/11/16 10:53:18;;;;;;;36.42;20.25;;;10.20;99.90;;;;;;5064370;28;20032;-88
2021/11/16 10:55:53;;;;;;;24.13;15.45;;;10.80;99.90;;;;;;5065898;28;20028;-89
2021/11/16 10:58:23;;;;;;;18.33;14.23;;;10.40;99.90;;;;;;5066076;28;20535;-88
2021/11/16 11:00:58;;;;;;;20.98;13.02;;;10.40;99.90;;;;;;5066090;28;20025;-88
2021/11/16 11:03:25;;;;;;;63.47;29.30;;;10.10;99.90;;;;;;5067045;28;20386;-88
2021/11/16 11:05:56;;;;;;;28.50;15.70;;;10.20;99.90;;;;;;5070966;28;20016;-88
2021/11/16 11:08:46;;;;;;;90.93;38.55;;;10.10;99.90;;;;;;5065661;28;20029;-88
2021/11/16 11:11:15;;;;;;;77.95;31.75;;;10.10;99.90;;;;;;5066022;28;20032;-88
2021/11/16 11:13:43;;;;;;;153.23;58.33;;;10.10;99.90;;;;;;5065376;28;20033;-88
2021/11/16 11:16:16;;;;;;;24.50;15.75;;;10.30;99.90;;;;;;5065842;28;20392;-88
2021/11/16 11:18:45;;;;;;;20.00;13.23;;;10.20;99.90;;;;;;5066359;28;20127;-88
2021/11/16 11:21:23;;;;;;;23.85;15.15;;;10.20;99.90;;;;;;5069782;28;20032;-88
2021/11/16 11:23:52;;;;;;;18.40;13.52;;;10.00;99.90;;;;;;5069040;28;20040;-88
2021/11/16 11:26:35;;;;;;;20.88;12.85;;;10.00;99.90;;;;;;5065826;28;20032;-89
2021/11/16 11:29:29;;;;;;;20.13;13.60;;;9.70;99.90;;;;;;5061677;28;20099;-89
2021/11/16 11:32:09;;;;;;;21.17;14.30;;;10.20;99.90;;;;;;5058233;28;20033;-94
2021/11/16 11:34:48;;;;;;;20.52;13.52;;;10.20;99.90;;;;;;5066604;28;20094;-93
2021/11/16 11:37:18;;;;;;;16.85;11.93;;;10.10;99.90;;;;;;5066146;28;20028;-95
2021/11/16 11:39:53;;;;;;;18.52;12.27;;;10.20;99.90;;;;;;5065805;28;20433;-93
2021/11/16 11:42:18;;;;;;;16.88;11.82;;;10.60;99.90;;;;;;5068855;28;20055;-91
2021/11/16 11:45:11;;;;;;;18.90;12.10;;;10.60;99.90;;;;;;5047791;28;20064;-95
2021/11/16 11:47:39;;;;;;;18.55;11.65;;;10.40;99.90;;;;;;5064435;28;20530;-94
2021/11/16 11:50:24;;;;;;;16.75;11.18;;;10.40;99.90;;;;;;5066996;28;20149;-94
2021/11/16 11:52:51;;;;;;;20.40;12.23;;;10.60;99.90;;;;;;5063750;28;20031;-96
2021/11/16 11:55:17;;;;;;;20.67;12.70;;;10.40;99.90;;;;;;5075174;28;20501;-96
2021/11/16 11:57:43;;;;;;;17.35;11.23;;;10.40;99.90;;;;;;5069541;28;20029;-88
2021/11/16 12:00:10;;;;;;;16.23;11.20;;;10.40;99.90;;;;;;5070140;28;20077;-95
2021/11/16 12:02:37;;;;;;;14.30;10.77;;;10.30;99.90;;;;;;5068215;28;20025;-95
2021/11/16 12:05:03;;;;;;;16.75;10.82;;;10.40;99.90;;;;;;5141420;23;20135;-86
2021/11/16 12:07:29;;;;;;;13.90;10.18;;;10.40;99.90;;;;;;5084688;28;20116;-91
2021/11/16 12:09:56;;;;;;;57.58;32.38;;;10.40;99.90;;;;;;5086794;28;20017;-91
2021/11/16 12:12:23;;;;;;;15.65;11.00;;;10.30;99.90;;;;;;5080513;28;20020;-94
2021/11/16 12:15:16;;;;;;;15.02;10.88;;;10.90;99.90;;;;;;5083612;28;20501;-91
2021/11/16 12:17:51;;;;;;;31.48;19.15;;;10.40;99.90;;;;;;5066006;28;20041;-91
2021/11/16 12:20:49;;;;;;;37.53;23.63;;;10.40;99.90;;;;;;5077608;28;20032;-88
2021/11/16 12:23:18;;;;;;;36.70;22.20;;;10.30;99.90;;;;;;5084974;28;20028;-86
2021/11/16 12:25:47;;;;;;;32.90;19.63;;;10.20;99.90;;;;;;5063755;28;20055;-85
2021/11/16 12:28:26;;;;;;;25.05;16.90;;;10.30;99.90;;;;;;5083838;28;20036;-86
2021/11/16 12:30:52;;;;;;;57.65;33.17;;;10.30;99.90;;;;;;5084858;28;20048;-86
2021/11/16 12:33:37;;;;;;;46.53;27.95;;;10.20;99.90;;;;;;5080085;28;20036;-88
2021/11/16 12:36:04;;;;;;;16.45;10.30;;;10.10;99.90;;;;;;5083209;28;20106;-87
2021/11/16 12:38:39;;;;;;;18.55;13.02;;;10.40;99.90;;;;;;5077036;28;20046;-86
2021/11/16 12:41:27;;;;;;;13.75;9.75;;;10.00;99.90;;;;;;5085110;28;20480;-86
2021/11/16 12:43:54;;;;;;;43.80;24.10;;;10.10;99.90;;;;;;5078991;28;20025;-90
2021/11/16 12:46:22;;;;;;;17.70;12.45;;;10.40;99.90;;;;;;5083899;28;20028;-92
2021/11/16 12:48:51;;;;;;;14.75;10.02;;;10.10;99.90;;;;;;5084218;28;20040;-84
2021/11/16 12:51:25;;;;;;;16.38;11.02;;;10.30;99.90;;;;;;5080452;28;20031;-86
2021/11/16 12:54:07;;;;;;;18.65;12.15;;;10.50;99.90;;;;;;5081826;28;20039;-86
2021/11/16 12:56:42;;;;;;;12.05;8.48;;;9.90;99.90;;;;;;5076594;28;20020;-88
2021/11/16 12:59:09;;;;;;;12.95;8.68;;;10.40;99.90;;;;;;5084828;28;20404;-86
2021/11/16 13:01:44;;;;;;;11.52;8.65;;;9.80;99.90;;;;;;5080510;28;20230;-85
2021/11/16 13:04:11;;;;;;;17.05;11.18;;;10.30;99.90;;;;;;5082870;28;20048;-86
2021/11/16 13:06:40;;;;;;;14.43;10.15;;;10.20;99.90;;;;;;5086849;28;20079;-87
2021/11/16 13:09:08;;;;;;;12.35;8.32;;;9.80;99.90;;;;;;5086502;28;20028;-86
2021/11/16 13:11:46;;;;;;;26.27;15.73;;;9.80;99.90;;;;;;5082666;28;20507;-86